createdAt,value
2022-10-14T00:00:17.886Z,12.70
2022-10-14T00:02:50.185Z,12.71
2022-10-14T00:05:22.522Z,12.73
2022-10-14T00:07:56.042Z,12.76
2022-10-14T00:10:30.876Z,12.78
2022-10-14T00:13:03.158Z,12.78
2022-10-14T00:15:39.859Z,12.77
2022-10-14T00:18:12.234Z,12.77
2022-10-14T00:20:53.081Z,12.78
2022-10-14T00:23:25.674Z,12.81
2022-10-14T00:25:57.928Z,12.80
2022-10-14T00:28:30.563Z,12.77
2022-10-14T00:31:02.871Z,12.73
2022-10-14T00:33:35.349Z,12.70
2022-10-14T00:36:08.073Z,12.68
2022-10-14T00:38:40.437Z,12.68
2022-10-14T00:41:14.092Z,12.65
2022-10-14T00:43:55.397Z,12.61
2022-10-14T00:46:29.552Z,12.60
2022-10-14T00:49:05.649Z,12.56
2022-10-14T00:51:39.426Z,12.54
2022-10-14T00:54:13.889Z,12.51
2022-10-14T00:56:48.023Z,12.48
2022-10-14T00:59:20.454Z,12.46
2022-10-14T01:01:52.986Z,12.47
2022-10-14T01:04:26.235Z,12.48
2022-10-14T01:07:11.508Z,12.46
2022-10-14T01:10:02.506Z,12.42
2022-10-14T01:12:45.606Z,12.40
2022-10-14T01:15:40.899Z,12.42
2022-10-14T01:18:20.836Z,12.41
2022-10-14T01:20:59.517Z,12.39
2022-10-14T01:23:34.786Z,12.41
2022-10-14T01:26:07.054Z,12.43
2022-10-14T01:28:45.655Z,12.43
2022-10-14T01:31:20.100Z,12.44
2022-10-14T01:33:54.380Z,12.45
2022-10-14T01:36:31.832Z,12.45
2022-10-14T01:39:12.818Z,12.45
2022-10-14T01:41:52.536Z,12.46
2022-10-14T01:44:26.325Z,12.47
2022-10-14T01:47:00.431Z,12.49
2022-10-14T01:49:35.371Z,12.48
2022-10-14T01:52:14.249Z,12.48
2022-10-14T01:54:48.184Z,12.48
2022-10-14T01:57:23.550Z,12.46
2022-10-14T01:59:56.953Z,12.45
2022-10-14T02:02:29.418Z,12.42
2022-10-14T02:05:02.713Z,12.44
2022-10-14T02:07:45.576Z,12.43
2022-10-14T02:10:20.632Z,12.44
2022-10-14T02:13:08.594Z,12.45
2022-10-14T02:15:40.845Z,12.46
2022-10-14T02:18:19.205Z,12.46
2022-10-14T02:21:06.901Z,12.46
2022-10-14T02:23:46.541Z,12.47
2022-10-14T02:26:19.058Z,12.47
2022-10-14T02:28:52.871Z,12.46
2022-10-14T02:31:26.966Z,12.51
2022-10-14T02:34:01.666Z,12.53
2022-10-14T02:36:35.170Z,12.53
2022-10-14T02:39:09.696Z,12.52
2022-10-14T02:41:42.065Z,12.52
2022-10-14T02:44:14.346Z,12.51
2022-10-14T02:46:46.747Z,12.52
2022-10-14T02:49:19.342Z,12.51
2022-10-14T02:51:51.612Z,12.56
2022-10-14T02:54:23.898Z,12.57
2022-10-14T02:56:56.184Z,12.56
2022-10-14T02:59:28.563Z,12.57
2022-10-14T03:02:01.098Z,12.58
2022-10-14T03:04:33.696Z,12.61
2022-10-14T03:07:05.989Z,12.61
2022-10-14T03:09:38.281Z,12.63
2022-10-14T03:12:10.576Z,12.63
2022-10-14T03:14:42.864Z,12.60
2022-10-14T03:17:15.380Z,12.60
2022-10-14T03:19:47.641Z,12.60
2022-10-14T03:22:20.351Z,12.61
2022-10-14T03:24:52.808Z,12.63
2022-10-14T03:27:25.251Z,12.63
2022-10-14T03:29:57.547Z,12.63
2022-10-14T03:32:29.849Z,12.63
2022-10-14T03:35:02.132Z,12.63
2022-10-14T03:37:34.455Z,12.65
2022-10-14T03:40:07.082Z,12.67
2022-10-14T03:42:40.205Z,12.67
2022-10-14T03:45:12.887Z,12.69
2022-10-14T03:47:45.183Z,12.71
2022-10-14T03:50:17.506Z,12.71
2022-10-14T03:52:53.360Z,12.70
2022-10-14T03:55:27.792Z,12.72
2022-10-14T03:58:00.037Z,12.76
2022-10-14T04:00:33.422Z,12.77
2022-10-14T04:03:05.701Z,12.81
2022-10-14T04:05:38.072Z,12.76
2022-10-14T04:08:10.396Z,12.77
2022-10-14T04:10:42.651Z,12.80
2022-10-14T04:13:14.946Z,12.81
2022-10-14T04:15:47.326Z,12.82
2022-10-14T04:18:19.634Z,12.82
2022-10-14T04:20:51.887Z,12.82
2022-10-14T04:23:24.178Z,12.83
2022-10-14T04:25:56.522Z,12.86
2022-10-14T04:28:53.434Z,12.88
2022-10-14T04:31:25.713Z,12.88
2022-10-14T04:33:57.983Z,12.88
2022-10-14T04:36:30.242Z,12.84
2022-10-14T04:39:02.586Z,12.85
2022-10-14T04:41:34.898Z,12.87
2022-10-14T04:44:07.225Z,12.86
2022-10-14T04:46:39.639Z,12.85
2022-10-14T04:49:12.671Z,12.85
2022-10-14T04:51:44.966Z,12.85
2022-10-14T04:54:17.232Z,12.86
2022-10-14T04:56:49.502Z,12.84
2022-10-14T04:59:21.772Z,12.83
2022-10-14T05:01:54.121Z,12.82
2022-10-14T05:04:26.446Z,12.81
2022-10-14T05:06:58.721Z,12.81
2022-10-14T05:09:31.006Z,12.82
2022-10-14T05:12:04.196Z,12.81
2022-10-14T05:14:36.533Z,12.82
2022-10-14T05:17:08.835Z,12.81
2022-10-14T05:19:41.121Z,12.82
2022-10-14T05:22:13.410Z,12.84
2022-10-14T05:24:45.690Z,12.84
2022-10-14T05:27:18.309Z,12.85
2022-10-14T05:29:50.571Z,12.85
2022-10-14T05:32:23.065Z,12.86
2022-10-14T05:34:55.653Z,12.85
2022-10-14T05:37:27.905Z,12.87
2022-10-14T05:40:00.191Z,12.87
2022-10-14T05:42:32.455Z,12.85
2022-10-14T05:45:05.380Z,12.86
2022-10-14T05:47:37.677Z,12.86
2022-10-14T05:50:10.104Z,12.84
2022-10-14T05:52:42.468Z,12.85
2022-10-14T05:55:14.749Z,12.86
2022-10-14T05:57:47.074Z,12.89
2022-10-14T06:00:24.693Z,12.87
2022-10-14T06:02:58.773Z,12.87
2022-10-14T06:05:34.588Z,12.89
2022-10-14T06:08:06.874Z,12.90
2022-10-14T06:10:39.128Z,12.88
2022-10-14T06:13:11.468Z,12.88
2022-10-14T06:15:43.724Z,12.89
2022-10-14T06:18:15.990Z,12.89
2022-10-14T06:20:53.122Z,12.89
2022-10-14T06:23:25.470Z,12.90
2022-10-14T06:25:57.747Z,12.92
2022-10-14T06:28:30.273Z,12.95
2022-10-14T06:31:02.651Z,12.98
2022-10-14T06:33:35.060Z,12.97
2022-10-14T06:36:07.576Z,12.97
2022-10-14T06:38:39.831Z,13.02
2022-10-14T06:41:12.141Z,13.01
2022-10-14T06:43:44.492Z,13.03
2022-10-14T06:46:16.812Z,13.03
2022-10-14T06:48:50.443Z,13.05
2022-10-14T06:51:22.922Z,13.04
2022-10-14T06:53:55.188Z,13.07
2022-10-14T06:56:27.447Z,13.07
2022-10-14T06:59:00.084Z,13.12
2022-10-14T07:01:32.500Z,13.17
2022-10-14T07:04:05.318Z,13.20
2022-10-14T07:06:38.186Z,13.19
2022-10-14T07:09:10.504Z,13.23
2022-10-14T07:11:42.886Z,13.29
2022-10-14T07:14:15.240Z,13.32
2022-10-14T07:16:47.568Z,13.37
2022-10-14T07:19:19.842Z,13.37
2022-10-14T07:21:52.189Z,13.39
2022-10-14T07:24:24.561Z,13.36
2022-10-14T07:26:56.859Z,13.36
2022-10-14T07:29:29.263Z,13.42
2022-10-14T07:32:01.759Z,13.43
2022-10-14T07:34:34.361Z,13.47
2022-10-14T07:37:06.616Z,13.53
2022-10-14T07:39:38.901Z,13.58
2022-10-14T07:42:11.492Z,13.63
2022-10-14T07:44:45.723Z,13.62
2022-10-14T07:47:17.989Z,13.63
2022-10-14T07:49:50.308Z,13.64
2022-10-14T07:52:22.563Z,13.68
2022-10-14T07:54:54.907Z,13.68
2022-10-14T07:57:27.924Z,13.76
2022-10-14T08:00:00.233Z,13.78
2022-10-14T08:02:32.516Z,13.79
2022-10-14T08:05:25.557Z,13.79
2022-10-14T08:07:57.369Z,13.91
2022-10-14T08:10:29.633Z,13.95
2022-10-14T08:13:02.258Z,14.01
2022-10-14T08:15:40.517Z,14.02
2022-10-14T08:18:15.263Z,14.15
2022-10-14T08:20:47.516Z,14.23
2022-10-14T08:23:20.145Z,14.25
2022-10-14T08:25:52.521Z,14.32
2022-10-14T08:28:25.253Z,14.34
2022-10-14T08:30:57.564Z,14.41
2022-10-14T08:33:29.809Z,14.42
2022-10-14T08:36:02.080Z,14.46
2022-10-14T08:38:34.479Z,14.58
2022-10-14T08:41:17.070Z,14.66
2022-10-14T08:43:49.359Z,14.62
2022-10-14T08:46:27.405Z,14.64
2022-10-14T08:49:03.851Z,14.61
2022-10-14T08:51:36.691Z,14.61
2022-10-14T08:54:15.143Z,14.78
2022-10-14T08:56:47.421Z,14.94
2022-10-14T08:59:20.554Z,15.09
2022-10-14T09:01:55.563Z,15.35
2022-10-14T09:04:27.993Z,15.58
2022-10-14T09:07:00.492Z,15.69
2022-10-14T09:09:43.474Z,15.64
2022-10-14T09:12:24.241Z,15.71
2022-10-14T09:15:15.641Z,15.68
2022-10-14T09:17:57.261Z,15.69
2022-10-14T09:20:29.723Z,15.71
2022-10-14T09:23:04.850Z,15.74
2022-10-14T09:25:40.456Z,15.70
2022-10-14T09:28:12.870Z,15.79
2022-10-14T09:30:45.304Z,15.66
2022-10-14T09:33:20.583Z,15.61
2022-10-14T09:35:53.007Z,15.58
2022-10-14T09:38:26.064Z,15.43
2022-10-14T09:40:59.747Z,15.23
2022-10-14T09:43:32.180Z,14.97
2022-10-14T09:46:07.849Z,14.87
2022-10-14T09:48:40.135Z,14.86
2022-10-14T09:51:27.767Z,14.77
2022-10-14T09:54:01.950Z,14.79
2022-10-14T09:56:39.001Z,14.86
2022-10-14T09:59:19.546Z,14.87
2022-10-14T10:01:53.609Z,14.94
2022-10-14T10:04:32.125Z,14.88
2022-10-14T10:07:06.080Z,15.01
2022-10-14T10:09:38.373Z,15.11
2022-10-14T10:12:46.941Z,15.13
2022-10-14T10:15:21.255Z,15.21
2022-10-14T10:17:53.582Z,15.34
2022-10-14T10:20:33.525Z,15.41
2022-10-14T10:23:25.106Z,15.43
2022-10-14T10:26:14.720Z,15.43
2022-10-14T10:28:49.088Z,15.30
2022-10-14T10:31:27.659Z,15.29
2022-10-14T10:34:14.061Z,15.32
2022-10-14T10:36:53.375Z,15.21
2022-10-14T10:40:01.255Z,15.15
2022-10-14T10:42:40.514Z,15.18
2022-10-14T10:45:24.768Z,15.27
2022-10-14T10:48:08.099Z,15.46
2022-10-14T10:50:52.627Z,15.39
2022-10-14T10:53:37.296Z,15.52
2022-10-14T10:56:28.300Z,15.73
2022-10-14T10:59:10.822Z,15.76
2022-10-14T11:01:55.633Z,15.67
2022-10-14T11:04:31.027Z,15.62
2022-10-14T11:07:42.364Z,15.41
2022-10-14T11:11:03.721Z,15.30
2022-10-14T11:13:45.387Z,15.29
2022-10-14T11:16:36.306Z,15.21
2022-10-14T11:19:20.956Z,15.15
2022-10-14T11:22:05.570Z,15.20
2022-10-14T11:24:39.689Z,15.15
2022-10-14T11:27:12.029Z,15.15
2022-10-14T11:30:01.354Z,15.08
2022-10-14T11:32:37.957Z,15.08
2022-10-14T11:38:16.198Z,14.87
2022-10-14T11:41:00.525Z,14.94
2022-10-14T11:43:35.849Z,14.94
2022-10-14T11:46:10.871Z,14.91
2022-10-14T11:48:46.180Z,15.11
2022-10-14T11:51:24.732Z,15.24
2022-10-14T11:54:16.055Z,15.23
2022-10-14T11:56:48.328Z,15.35
2022-10-14T11:59:26.750Z,15.50
2022-10-14T12:02:03.951Z,15.59
2022-10-14T12:04:37.407Z,15.51
2022-10-14T12:07:17.825Z,15.63
2022-10-14T12:09:59.764Z,15.58
2022-10-14T12:12:34.319Z,15.55
2022-10-14T12:15:13.541Z,15.56
2022-10-14T12:17:57.563Z,15.59
2022-10-14T12:20:40.685Z,15.46
2022-10-14T12:23:15.559Z,15.51
2022-10-14T12:25:57.548Z,15.57
2022-10-14T12:28:31.095Z,15.38
2022-10-14T12:31:22.330Z,15.35
2022-10-14T12:34:17.390Z,15.36
2022-10-14T12:36:50.502Z,15.39
2022-10-14T12:39:29.899Z,15.53
2022-10-14T12:42:04.165Z,15.68
2022-10-14T12:44:44.319Z,15.73
2022-10-14T12:47:21.998Z,15.68
2022-10-14T12:49:56.385Z,15.70
2022-10-14T12:52:31.085Z,15.71
2022-10-14T12:55:09.789Z,15.74
2022-10-14T12:57:42.503Z,15.74
2022-10-14T13:00:21.014Z,15.68
2022-10-14T13:02:54.525Z,15.73
2022-10-14T13:05:27.222Z,15.69
2022-10-14T13:08:18.453Z,15.64
2022-10-14T13:11:02.333Z,15.60
2022-10-14T13:13:40.417Z,15.50
2022-10-14T13:16:15.755Z,15.32
2022-10-14T13:18:50.326Z,15.24
2022-10-14T13:21:25.487Z,15.26
2022-10-14T13:24:16.453Z,15.30
2022-10-14T13:26:54.956Z,15.29
2022-10-14T13:29:55.316Z,15.33
2022-10-14T13:32:40.724Z,15.41
2022-10-14T13:35:32.061Z,15.53
2022-10-14T13:38:12.577Z,15.77
2022-10-14T13:40:49.111Z,15.69
2022-10-14T13:43:26.889Z,15.60
2022-10-14T13:46:04.105Z,15.47
2022-10-14T13:48:40.460Z,15.35
2022-10-14T13:51:24.287Z,15.22
2022-10-14T13:54:19.033Z,15.18
2022-10-14T14:02:48.069Z,15.39
2022-10-14T14:05:23.020Z,15.41
2022-10-14T14:11:14.490Z,15.77
2022-10-14T14:13:52.388Z,15.94
2022-10-14T14:16:48.129Z,15.92
2022-10-14T14:19:30.851Z,15.70
2022-10-14T14:22:07.413Z,15.60
2022-10-14T14:24:39.713Z,15.72
2022-10-14T14:27:13.721Z,15.75
2022-10-14T14:29:48.275Z,15.72
2022-10-14T14:32:21.491Z,15.68
2022-10-14T14:37:53.389Z,15.53
2022-10-14T14:40:27.554Z,15.54
2022-10-14T14:43:03.499Z,15.63
2022-10-14T14:45:43.695Z,15.60
2022-10-14T14:48:16.475Z,15.50
2022-10-14T14:50:48.924Z,15.39
2022-10-14T14:53:23.959Z,15.36
2022-10-14T14:55:56.272Z,15.34
2022-10-14T14:58:31.381Z,15.39
2022-10-14T15:01:05.525Z,15.44
2022-10-14T15:04:12.016Z,15.52
2022-10-14T15:06:51.695Z,15.56
2022-10-14T15:09:28.959Z,15.66
2022-10-14T15:12:02.824Z,15.75
2022-10-14T15:14:52.074Z,15.76
2022-10-14T15:17:30.584Z,15.87
2022-10-14T15:20:21.946Z,15.95
2022-10-14T15:23:01.859Z,16.01
2022-10-14T15:25:34.251Z,15.98
2022-10-14T15:28:26.550Z,15.97
2022-10-14T15:31:03.078Z,15.95
2022-10-14T15:33:38.030Z,15.91
2022-10-14T15:36:10.604Z,15.92
2022-10-14T15:38:43.048Z,15.96
2022-10-14T15:41:15.497Z,15.98
2022-10-14T15:43:47.798Z,15.96
2022-10-14T15:46:38.867Z,15.92
2022-10-14T15:49:15.560Z,15.86
2022-10-14T15:51:47.895Z,15.80
2022-10-14T15:54:20.237Z,15.75
2022-10-14T15:56:52.752Z,15.65
2022-10-14T15:59:25.757Z,15.52
2022-10-14T16:01:58.854Z,15.40
2022-10-14T16:04:31.327Z,15.30
2022-10-14T16:07:03.598Z,15.21
2022-10-14T16:09:35.881Z,15.13
2022-10-14T16:12:12.509Z,15.02
2022-10-14T16:14:44.986Z,14.94
2022-10-14T16:17:18.822Z,14.83
2022-10-14T16:19:51.277Z,14.72
2022-10-14T16:22:23.525Z,14.66
2022-10-14T16:24:56.122Z,14.59
2022-10-14T16:27:28.441Z,14.53
2022-10-14T16:30:00.856Z,14.46
2022-10-14T16:32:33.260Z,14.37
2022-10-14T16:35:07.353Z,14.33
2022-10-14T16:37:40.636Z,14.26
2022-10-14T16:40:13.139Z,14.21
2022-10-14T16:42:45.588Z,14.17
2022-10-14T16:45:17.882Z,14.15
2022-10-14T16:47:50.277Z,14.18
2022-10-14T16:50:22.663Z,14.19
2022-10-14T16:53:13.642Z,14.24
2022-10-14T16:55:45.901Z,14.29
2022-10-14T16:58:18.178Z,14.31
2022-10-14T17:00:50.464Z,14.33
2022-10-14T17:03:22.787Z,14.33
2022-10-14T17:05:58.848Z,14.35
2022-10-14T17:08:31.180Z,14.36
2022-10-14T17:11:03.552Z,14.38
2022-10-14T17:13:35.892Z,14.39
2022-10-14T17:16:08.269Z,14.41
2022-10-14T17:18:40.740Z,14.42
2022-10-14T17:21:13.781Z,14.45
2022-10-14T17:23:46.489Z,14.48
2022-10-14T17:26:19.278Z,14.50
2022-10-14T17:28:51.760Z,14.49
2022-10-14T17:31:24.731Z,14.50
2022-10-14T17:33:58.714Z,14.52
2022-10-14T17:36:31.143Z,14.52
2022-10-14T17:39:03.748Z,14.52
2022-10-14T17:41:36.030Z,14.54
2022-10-14T17:44:08.930Z,14.52
2022-10-14T17:46:41.265Z,14.52
2022-10-14T17:49:15.020Z,14.49
2022-10-14T17:51:48.634Z,14.45
2022-10-14T17:54:20.981Z,14.39
2022-10-14T17:56:53.515Z,14.32
2022-10-14T17:59:25.990Z,14.27
2022-10-14T18:02:02.769Z,14.18
2022-10-14T18:04:35.664Z,14.10
2022-10-14T18:07:07.933Z,14.01
2022-10-14T18:09:40.589Z,13.95
2022-10-14T18:12:12.927Z,13.87
2022-10-14T18:14:46.539Z,13.80
2022-10-14T18:17:19.123Z,13.73
2022-10-14T18:19:52.462Z,13.66
2022-10-14T18:22:24.905Z,13.55
2022-10-14T18:24:59.529Z,13.50
2022-10-14T18:27:32.325Z,13.43
2022-10-14T18:30:05.115Z,13.35
2022-10-14T18:32:37.465Z,13.27
2022-10-14T18:35:09.921Z,13.20
2022-10-14T18:37:42.336Z,13.17
2022-10-14T18:40:16.959Z,13.13
2022-10-14T18:42:50.193Z,13.07
2022-10-14T18:45:22.645Z,13.03
2022-10-14T18:47:54.968Z,12.98
2022-10-14T18:50:27.304Z,12.93
2022-10-14T18:52:59.984Z,12.88
2022-10-14T18:55:32.346Z,12.83
2022-10-14T18:58:04.831Z,12.82
2022-10-14T19:00:39.183Z,12.78
2022-10-14T19:03:11.504Z,12.72
2022-10-14T19:05:44.291Z,12.65
2022-10-14T19:08:16.592Z,12.59
2022-10-14T19:10:48.932Z,12.54
2022-10-14T19:13:21.426Z,12.48
2022-10-14T19:16:04.139Z,12.40
2022-10-14T19:18:36.419Z,12.35
2022-10-14T19:21:10.274Z,12.31
2022-10-14T19:23:43.515Z,12.29
2022-10-14T19:26:19.660Z,12.27
2022-10-14T19:28:52.234Z,12.23
2022-10-14T19:31:25.952Z,12.22
2022-10-14T19:34:00.684Z,12.18
2022-10-14T19:36:34.470Z,12.14
2022-10-14T19:39:08.105Z,12.08
2022-10-14T19:41:45.081Z,12.05
2022-10-14T19:44:17.576Z,11.99
2022-10-14T19:46:49.909Z,11.98
2022-10-14T19:49:22.269Z,11.95
2022-10-14T19:51:54.534Z,11.94
2022-10-14T19:54:26.954Z,11.94
2022-10-14T19:56:59.251Z,11.90
2022-10-14T19:59:31.509Z,11.86
2022-10-14T20:02:03.858Z,11.77
2022-10-14T20:04:36.219Z,11.71
2022-10-14T20:07:08.532Z,11.66
2022-10-14T20:09:40.819Z,11.64
2022-10-14T20:12:13.095Z,11.63
2022-10-14T20:14:45.613Z,11.61
2022-10-14T20:19:55.220Z,11.51
2022-10-14T20:22:27.633Z,11.51
2022-10-14T20:25:00.116Z,11.47
2022-10-14T20:27:32.608Z,11.39
2022-10-14T20:30:05.122Z,11.34
2022-10-14T20:32:37.437Z,11.32
2022-10-14T20:35:14.831Z,11.26
2022-10-14T20:37:47.445Z,11.24
2022-10-14T20:40:19.749Z,11.21
2022-10-14T20:42:52.277Z,11.21
2022-10-14T20:45:25.165Z,11.24
2022-10-14T20:47:57.474Z,11.23
2022-10-14T20:50:29.768Z,11.22
2022-10-14T20:53:05.083Z,11.18
2022-10-14T20:55:37.602Z,11.13
2022-10-14T20:58:09.921Z,11.13
2022-10-14T21:00:42.349Z,11.18
2022-10-14T21:03:14.849Z,11.21
2022-10-14T21:05:49.509Z,11.28
2022-10-14T21:08:21.838Z,11.34
2022-10-14T21:10:58.500Z,11.39
2022-10-14T21:13:30.944Z,11.45
2022-10-14T21:16:12.218Z,11.50
2022-10-14T21:18:44.955Z,11.54
2022-10-14T21:21:17.438Z,11.58
2022-10-14T21:23:49.781Z,11.63
2022-10-14T21:26:22.445Z,11.66
2022-10-14T21:28:54.995Z,11.69
2022-10-14T21:31:27.378Z,11.71
2022-10-14T21:34:05.437Z,11.73
2022-10-14T21:36:38.970Z,11.76
2022-10-14T21:39:15.255Z,11.79
2022-10-14T21:41:47.634Z,11.79
2022-10-14T21:44:20.820Z,11.79
2022-10-14T21:46:53.201Z,11.81
2022-10-14T21:49:26.835Z,11.83
2022-10-14T21:51:59.117Z,11.85
2022-10-14T21:54:31.533Z,11.83
2022-10-14T21:57:03.832Z,11.83
2022-10-14T21:59:36.273Z,11.84
2022-10-14T22:02:08.920Z,11.83
2022-10-14T22:04:41.235Z,11.85
2022-10-14T22:07:13.539Z,11.85
2022-10-14T22:09:46.063Z,11.86
2022-10-14T22:12:18.577Z,11.86
2022-10-14T22:14:51.110Z,11.86
2022-10-14T22:17:23.821Z,11.85
2022-10-14T22:19:58.029Z,11.82
2022-10-14T22:22:30.322Z,11.80
2022-10-14T22:25:02.623Z,11.77
2022-10-14T22:27:34.975Z,11.73
2022-10-14T22:30:08.242Z,11.68
2022-10-14T22:32:40.487Z,11.64
2022-10-14T22:35:12.754Z,11.62
2022-10-14T22:37:45.052Z,11.63
2022-10-14T22:40:18.118Z,11.63
2022-10-14T22:42:51.482Z,11.61
2022-10-14T22:45:24.022Z,11.59
2022-10-14T22:47:56.323Z,11.59
2022-10-14T22:50:28.588Z,11.60
2022-10-14T22:53:00.862Z,11.60
2022-10-14T22:55:33.141Z,11.60
2022-10-14T22:58:05.474Z,11.60
2022-10-14T23:03:11.239Z,11.55
2022-10-14T23:05:43.573Z,11.50
2022-10-14T23:08:16.118Z,11.46
2022-10-14T23:10:48.392Z,11.42
2022-10-14T23:13:20.661Z,11.37
2022-10-14T23:15:56.876Z,11.34
2022-10-14T23:18:30.139Z,11.33
2022-10-14T23:21:08.676Z,11.30
2022-10-14T23:23:44.156Z,11.26
2022-10-14T23:26:17.609Z,11.22
2022-10-14T23:28:51.214Z,11.18
2022-10-14T23:31:25.083Z,11.14
2022-10-14T23:33:58.512Z,11.13
2022-10-14T23:36:30.910Z,11.11
2022-10-14T23:39:03.885Z,11.00
2022-10-14T23:41:36.259Z,10.91
2022-10-14T23:44:10.189Z,10.84
2022-10-14T23:46:42.481Z,10.74
2022-10-14T23:49:25.429Z,10.66
2022-10-14T23:51:59.203Z,10.60
2022-10-14T23:54:32.276Z,10.58
2022-10-14T23:57:04.855Z,10.57
2022-10-14T23:59:37.205Z,10.57
